Time;durP1;ratioP1;P1;durP2;ratioP2;P2;SDS_P1;SDS_P2;PMS_P1;PMS_P2;Temp;Humidity;BMP_temperature;BMP_pressure;BME280_temperature;BME280_humidity;BME280_pressure;Samples;Min_cycle;Max_cycle;Signal;HPM_P1;HPM_P2
2023/01/05 00:01:27;;;;;;;8.53;2.20;;;9.70;90.40;;;;;;4954459;29;20457;-49
2023/01/05 00:03:52;;;;;;;14.47;2.10;;;9.70;99.90;;;;;;4954144;29;20644;-49
2023/01/05 00:06:18;;;;;;;14.03;2.60;;;9.80;81.50;;;;;;4955276;28;20193;-49
2023/01/05 00:08:44;;;;;;;10.07;2.57;;;9.70;47.50;;;;;;4955750;28;20221;-49
2023/01/05 00:22:37;;;;;;;13.10;2.50;;;9.70;1.00;;;;;;4955621;29;20664;-49
2023/01/05 00:25:07;;;;;;;13.93;2.87;;;9.70;1.00;;;;;;4956170;29;20432;-49
2023/01/05 00:27:33;;;;;;;15.53;2.33;;;9.70;1.00;;;;;;4955262;29;20840;-52
2023/01/05 00:29:59;;;;;;;10.53;2.43;;;9.70;1.00;;;;;;4955120;29;20501;-48
2023/01/05 00:32:26;;;;;;;15.93;2.20;;;9.70;1.00;;;;;;4955151;29;20609;-49
2023/01/05 00:34:54;;;;;;;14.53;2.70;;;9.70;1.00;;;;;;4955457;28;20464;-48
2023/01/05 00:37:22;;;;;;;11.97;3.17;;;9.70;1.00;;;;;;4935324;29;20456;-49
2023/01/05 00:39:47;;;;;;;14.37;2.50;;;9.70;1.00;;;;;;4936070;29;20794;-49
2023/01/05 00:42:13;;;;;;;7.27;1.80;;;9.70;1.00;;;;;;4935877;29;20414;-53
2023/01/05 00:44:39;;;;;;;12.57;3.00;;;9.70;1.00;;;;;;4935504;29;20186;-49
2023/01/05 00:47:04;;;;;;;11.97;2.50;;;9.60;1.00;;;;;;4935712;29;20232;-49
2023/01/05 00:49:30;;;;;;;17.20;2.80;;;9.70;1.00;;;;;;4935992;29;20213;-49
2023/01/05 00:51:55;;;;;;;14.00;3.10;;;9.70;1.00;;;;;;4930750;29;21111;-49
2023/01/05 00:54:21;;;;;;;17.33;2.77;;;9.60;1.00;;;;;;4953771;29;20193;-48
2023/01/05 00:56:49;;;;;;;17.67;2.33;;;9.60;1.00;;;;;;4954736;29;20209;-54
2023/01/05 00:59:16;;;;;;;10.80;2.80;;;9.70;1.00;;;;;;4954565;29;20190;-53
2023/01/05 01:01:45;;;;;;;8.60;2.40;;;9.70;1.00;;;;;;4955288;29;21002;-48
2023/01/05 01:04:11;;;;;;;9.87;2.70;;;9.70;1.00;;;;;;4954890;28;20440;-49
2023/01/05 01:06:37;;;;;;;11.80;2.20;;;9.70;1.00;;;;;;4955142;28;20424;-48
2023/01/05 01:09:03;;;;;;;10.93;2.40;;;9.70;1.00;;;;;;4946343;29;20468;-48
2023/01/05 01:11:28;;;;;;;6.33;2.17;;;9.60;1.00;;;;;;4935699;29;20190;-49
2023/01/05 01:13:54;;;;;;;9.43;2.27;;;9.60;1.00;;;;;;4936232;29;20230;-55
2023/01/05 01:16:20;;;;;;;13.77;2.70;;;9.60;1.00;;;;;;4936724;29;20200;-49
2023/01/05 01:18:46;;;;;;;12.93;2.30;;;9.60;1.00;;;;;;4940901;29;20216;-48
2023/01/05 01:21:11;;;;;;;8.50;1.97;;;9.60;1.00;;;;;;4954491;29;20166;-49
2023/01/05 01:23:37;;;;;;;14.17;2.40;;;9.60;1.00;;;;;;4954025;29;20237;-48
2023/01/05 01:26:07;;;;;;;22.03;3.27;;;9.60;99.90;;;;;;4954926;29;20193;-49
2023/01/05 01:28:33;;;;;;;10.47;2.07;;;9.60;99.90;;;;;;4954771;29;20205;-49
2023/01/05 01:30:59;;;;;;;6.67;1.83;;;9.60;1.00;;;;;;4954610;29;20428;-49
2023/01/05 01:33:25;;;;;;;7.23;1.97;;;9.60;1.00;;;;;;4954488;29;20414;-54
2023/01/05 01:35:51;;;;;;;10.63;1.97;;;9.60;99.90;;;;;;4954353;29;20494;-48
2023/01/05 01:38:17;;;;;;;11.43;2.27;;;9.50;1.00;;;;;;4927813;29;20461;-48
2023/01/05 01:40:45;;;;;;;12.53;2.10;;;9.50;99.90;;;;;;4954790;29;20671;-49
2023/01/05 01:43:19;;;;;;;2.97;1.70;;;9.50;99.90;;;;;;4954448;28;20186;-49
2023/01/05 01:45:45;;;;;;;8.07;1.80;;;9.50;99.90;;;;;;4954755;29;20401;-48
2023/01/05 01:48:17;;;;;;;14.43;2.27;;;9.50;99.90;;;;;;4954691;29;20461;-48
2023/01/05 01:50:47;;;;;;;8.10;2.43;;;9.50;99.90;;;;;;4953508;29;20418;-48
2023/01/05 01:53:27;;;;;;;12.10;2.10;;;9.50;99.90;;;;;;4954485;29;20421;-50
2023/01/05 01:55:56;;;;;;;7.03;2.07;;;9.50;99.90;;;;;;4954700;29;20813;-51
2023/01/05 01:58:27;;;;;;;12.40;2.40;;;9.50;99.90;;;;;;4954365;28;20425;-51
2023/01/05 02:00:53;;;;;;;10.10;2.10;;;9.50;99.90;;;;;;4953924;29;20788;-51
2023/01/05 02:03:19;;;;;;;14.00;2.33;;;9.50;99.90;;;;;;4954016;28;20456;-51
2023/01/05 02:05:45;;;;;;;11.43;1.67;;;9.50;99.90;;;;;;4953489;29;20418;-53
2023/01/05 02:08:12;;;;;;;9.03;1.73;;;9.40;99.90;;;;;;4954317;29;20216;-51
2023/01/05 02:10:38;;;;;;;6.07;1.53;;;9.40;99.90;;;;;;4955418;28;20213;-50
2023/01/05 02:13:10;;;;;;;11.33;1.90;;;9.40;99.90;;;;;;4954521;29;20441;-51
2023/01/05 02:16:40;;;;;;;7.70;2.23;;;9.40;99.90;;;;;;4953816;29;20166;-51
2023/01/05 02:19:54;;;;;;;9.17;1.57;;;9.40;99.90;;;;;;4859141;29;20452;-51
2023/01/05 02:22:31;;;;;;;4.97;1.73;;;9.30;2.80;;;;;;4932747;29;20476;-50
2023/01/05 02:25:18;;;;;;;10.70;2.30;;;9.30;1.00;;;;;;4954197;29;20404;-53
2023/01/05 02:27:49;;;;;;;8.40;1.67;;;9.30;99.90;;;;;;4953491;29;20401;-50
2023/01/05 02:30:18;;;;;;;12.80;2.20;;;9.30;1.00;;;;;;4954264;29;20861;-53
2023/01/05 02:32:58;;;;;;;8.60;1.87;;;9.30;1.00;;;;;;4953189;29;20453;-50
2023/01/05 02:35:42;;;;;;;11.93;1.70;;;9.30;99.90;;;;;;4944076;29;20453;-50
2023/01/05 02:38:35;;;;;;;10.20;2.43;;;9.20;99.90;;;;;;4935218;29;20489;-50
2023/01/05 02:41:35;;;;;;;10.57;2.27;;;9.20;99.90;;;;;;4929209;29;20434;-50
2023/01/05 02:44:01;;;;;;;4.00;1.30;;;9.10;1.00;;;;;;4934365;29;20429;-50
2023/01/05 02:46:28;;;;;;;7.27;1.97;;;9.10;99.90;;;;;;4934559;29;20425;-50
2023/01/05 02:48:57;;;;;;;10.83;1.97;;;9.10;99.90;;;;;;4934361;29;20485;-51
2023/01/05 02:51:28;;;;;;;8.73;1.90;;;9.10;99.90;;;;;;4934253;29;20407;-56
2023/01/05 02:54:26;;;;;;;4.37;1.33;;;9.10;99.90;;;;;;4940883;29;20532;-50
2023/01/05 02:57:04;;;;;;;8.37;1.77;;;9.00;1.00;;;;;;4952735;29;20425;-50
2023/01/05 02:59:37;;;;;;;8.57;2.07;;;8.90;99.90;;;;;;4954069;29;20537;-48
2023/01/05 03:02:19;;;;;;;7.50;1.80;;;8.90;99.90;;;;;;4953503;29;20512;-48
2023/01/05 03:04:53;;;;;;;5.80;1.40;;;8.90;1.00;;;;;;4953061;28;20446;-49
2023/01/05 03:07:26;;;;;;;7.50;1.30;;;8.80;1.00;;;;;;4953737;29;20429;-48
2023/01/05 03:09:51;;;;;;;8.80;1.50;;;8.80;99.90;;;;;;4944758;29;20505;-48
2023/01/05 03:15:25;;;;;;;8.23;1.30;;;8.90;1.00;;;;;;4956922;28;20241;-56
2023/01/05 03:17:55;;;;;;;9.20;1.53;;;8.90;99.90;;;;;;4956481;28;20417;-48
2023/01/05 03:20:25;;;;;;;4.80;1.10;;;8.90;99.90;;;;;;4956972;28;20418;-48
2023/01/05 03:37:30;;;;;;;8.47;1.53;;;8.80;1.00;;;;;;4955706;29;20450;-48
2023/01/05 03:39:56;;;;;;;8.73;2.20;;;8.80;1.00;;;;;;4956181;28;20418;-48
2023/01/05 03:42:22;;;;;;;6.13;1.50;;;8.70;1.00;;;;;;4956130;29;20432;-48
2023/01/05 03:44:48;;;;;;;9.90;2.10;;;8.70;99.90;;;;;;4955888;29;20185;-48
2023/01/05 03:47:14;;;;;;;8.43;2.10;;;8.70;1.00;;;;;;4955946;29;20653;-50
2023/01/05 03:49:40;;;;;;;6.40;1.63;;;8.60;38.50;;;;;;4938536;29;20567;-48
2023/01/05 03:52:05;;;;;;;6.70;1.50;;;8.70;34.30;;;;;;4947087;29;20192;-48
2023/01/05 03:54:31;;;;;;;10.90;3.03;;;8.60;1.00;;;;;;4955728;29;20162;-48
2023/01/05 03:56:56;;;;;;;6.63;1.30;;;8.70;1.00;;;;;;4956007;28;20182;-48
2023/01/05 03:59:22;;;;;;;7.07;1.50;;;8.60;1.00;;;;;;4938344;29;20193;-48
2023/01/05 04:01:48;;;;;;;9.70;1.97;;;8.60;99.90;;;;;;4955854;29;20252;-48
2023/01/05 04:04:13;;;;;;;11.53;1.60;;;8.60;99.90;;;;;;4955455;29;20182;-48
2023/01/05 04:06:39;;;;;;;9.57;1.67;;;8.50;86.40;;;;;;4955416;28;20624;-49
2023/01/05 04:09:04;;;;;;;6.60;1.50;;;8.50;99.90;;;;;;4954779;29;20300;-48
2023/01/05 04:11:30;;;;;;;10.10;2.10;;;8.40;99.90;;;;;;4955587;28;20586;-47
2023/01/05 04:13:56;;;;;;;5.73;1.70;;;8.40;99.90;;;;;;4955486;28;20181;-48
2023/01/05 04:16:23;;;;;;;7.40;1.53;;;8.40;99.90;;;;;;4955443;29;20174;-48
2023/01/05 04:18:48;;;;;;;7.70;1.83;;;8.30;99.90;;;;;;4955360;29;20193;-47
2023/01/05 04:21:14;;;;;;;10.77;2.07;;;8.30;99.90;;;;;;4954944;28;20485;-48
2023/01/05 04:23:40;;;;;;;11.83;2.00;;;8.20;1.00;;;;;;4937254;29;20288;-50
2023/01/05 04:26:06;;;;;;;13.53;1.70;;;8.10;1.00;;;;;;4955169;29;20261;-48
2023/01/05 04:28:32;;;;;;;8.93;1.47;;;8.10;1.00;;;;;;4955501;29;20221;-50
2023/01/05 04:30:58;;;;;;;10.70;2.10;;;8.10;1.00;;;;;;4955199;29;20521;-50
2023/01/05 04:33:24;;;;;;;5.70;1.50;;;8.10;1.00;;;;;;4954747;28;20202;-50
2023/01/05 04:35:50;;;;;;;12.70;1.70;;;8.10;1.00;;;;;;4954989;29;20422;-51
2023/01/05 04:38:16;;;;;;;4.13;1.40;;;8.10;1.00;;;;;;4945860;29;20460;-49
2023/01/05 04:40:47;;;;;;;8.50;1.70;;;8.00;1.00;;;;;;4954950;28;20184;-50
2023/01/05 04:43:13;;;;;;;11.10;1.93;;;8.00;1.00;;;;;;4955136;29;21117;-50
2023/01/05 04:45:38;;;;;;;12.90;2.10;;;8.00;1.00;;;;;;4954757;29;20426;-49
2023/01/05 04:48:04;;;;;;;12.80;1.40;;;7.90;25.60;;;;;;4954615;28;20178;-50
2023/01/05 04:50:29;;;;;;;10.47;1.63;;;7.90;99.90;;;;;;4937470;29;20244;-50
2023/01/05 04:52:55;;;;;;;8.57;1.30;;;8.00;99.90;;;;;;4954117;29;20213;-50
2023/01/05 04:55:21;;;;;;;4.90;1.57;;;8.00;99.90;;;;;;4954522;28;20182;-50
2023/01/05 04:57:46;;;;;;;4.73;1.10;;;8.10;99.90;;;;;;4954507;29;20222;-52
2023/01/05 05:00:12;;;;;;;6.67;1.30;;;8.10;99.90;;;;;;4954688;28;20196;-50
2023/01/05 05:02:38;;;;;;;7.43;1.93;;;8.10;99.90;;;;;;4954384;29;20624;-50
2023/01/05 05:05:03;;;;;;;16.33;1.80;;;8.10;99.90;;;;;;4954182;29;20245;-50
2023/01/05 05:07:29;;;;;;;11.70;1.47;;;8.10;1.00;;;;;;4954405;29;20189;-50
2023/01/05 05:09:54;;;;;;;10.83;1.70;;;8.20;1.00;;;;;;4954868;29;20212;-50
2023/01/05 05:12:20;;;;;;;7.90;1.23;;;8.20;1.00;;;;;;4954201;29;20171;-50
2023/01/05 05:14:49;;;;;;;6.20;1.33;;;8.20;1.00;;;;;;4954474;29;20229;-54
2023/01/05 05:17:15;;;;;;;9.13;1.80;;;8.20;1.00;;;;;;4954099;28;20783;-50
2023/01/05 05:19:42;;;;;;;9.90;2.03;;;8.20;1.00;;;;;;4954231;29;20476;-55
2023/01/05 05:22:07;;;;;;;14.47;1.63;;;8.20;1.00;;;;;;4954155;29;20476;-50
2023/01/05 05:24:33;;;;;;;10.07;1.70;;;8.20;1.00;;;;;;4954149;29;20440;-50
2023/01/05 05:26:59;;;;;;;13.63;1.37;;;8.30;99.90;;;;;;4954194;29;20523;-49
2023/01/05 05:29:24;;;;;;;6.80;1.60;;;8.30;99.90;;;;;;4952477;29;20213;-50
2023/01/05 05:31:51;;;;;;;6.83;1.30;;;8.30;99.90;;;;;;4952823;29;20204;-49
2023/01/05 05:34:17;;;;;;;3.70;1.70;;;8.20;99.90;;;;;;4948671;28;20194;-50
2023/01/05 05:36:43;;;;;;;9.20;2.00;;;8.20;99.90;;;;;;4953748;29;20453;-49
2023/01/05 05:39:11;;;;;;;8.20;1.37;;;8.20;99.90;;;;;;4944918;29;20223;-49
2023/01/05 05:41:37;;;;;;;8.70;1.93;;;8.20;99.90;;;;;;4936401;29;20456;-50
2023/01/05 05:44:02;;;;;;;10.73;1.93;;;8.20;99.90;;;;;;4953777;29;20425;-50
2023/01/05 05:46:29;;;;;;;6.17;1.67;;;8.20;99.90;;;;;;4953656;28;20181;-49
2023/01/05 05:48:55;;;;;;;4.10;1.37;;;8.20;99.90;;;;;;4953794;29;20205;-50
2023/01/05 05:51:22;;;;;;;8.03;3.00;;;8.20;99.90;;;;;;4953763;28;20448;-50
2023/01/05 05:53:47;;;;;;;12.73;1.30;;;8.20;99.90;;;;;;4953659;28;20422;-50
2023/01/05 05:56:13;;;;;;;10.70;1.73;;;8.20;99.90;;;;;;4959305;28;21125;-50
2023/01/05 05:58:39;;;;;;;12.97;2.00;;;8.20;99.90;;;;;;4972779;28;20177;-50
2023/01/05 06:01:05;;;;;;;9.63;1.80;;;8.20;99.90;;;;;;4972642;28;20681;-50
2023/01/05 06:03:30;;;;;;;8.80;1.90;;;8.20;99.90;;;;;;4972730;28;20193;-50
2023/01/05 06:05:56;;;;;;;16.10;1.80;;;8.20;99.90;;;;;;4971198;28;20455;-50
2023/01/05 06:08:22;;;;;;;23.67;3.83;;;8.20;1.00;;;;;;4953229;29;20288;-50
2023/01/05 06:10:49;;;;;;;15.20;2.37;;;8.20;1.00;;;;;;4954296;29;20162;-50
2023/01/05 06:13:15;;;;;;;12.57;2.30;;;8.20;1.00;;;;;;4953453;29;20770;-51
2023/01/05 06:15:41;;;;;;;12.57;2.57;;;8.20;1.00;;;;;;4953458;29;20434;-50
2023/01/05 06:18:07;;;;;;;15.70;2.23;;;8.20;1.00;;;;;;4953239;29;20406;-50
2023/01/05 06:20:33;;;;;;;11.17;1.60;;;8.20;1.00;;;;;;4950352;29;20461;-51
2023/01/05 06:22:58;;;;;;;7.33;1.73;;;8.10;1.00;;;;;;4953191;28;20245;-50
2023/01/05 06:25:24;;;;;;;8.00;1.83;;;8.20;1.00;;;;;;4953107;28;21040;-50
2023/01/05 06:27:49;;;;;;;11.17;2.20;;;8.20;99.90;;;;;;4953182;29;20213;-50
2023/01/05 06:30:15;;;;;;;13.87;2.40;;;8.20;99.90;;;;;;4953406;29;20205;-51
2023/01/05 06:32:41;;;;;;;8.03;1.80;;;8.30;99.90;;;;;;4953164;28;20236;-51
2023/01/05 06:35:06;;;;;;;11.93;1.90;;;8.20;99.90;;;;;;4952972;29;20554;-51
2023/01/05 06:37:32;;;;;;;9.80;2.00;;;8.30;89.20;;;;;;4950157;29;20703;-50
2023/01/05 06:39:58;;;;;;;11.30;2.07;;;8.30;1.00;;;;;;4935893;29;20550;-50
2023/01/05 06:42:24;;;;;;;12.80;1.80;;;8.20;27.30;;;;;;4953013;29;20194;-51
2023/01/05 06:44:50;;;;;;;11.13;1.90;;;8.20;23.00;;;;;;4953167;28;20424;-51
2023/01/05 06:47:15;;;;;;;11.40;2.23;;;8.20;3.20;;;;;;4955392;28;20193;-51
2023/01/05 06:49:41;;;;;;;19.20;2.50;;;8.20;89.50;;;;;;4956538;29;20233;-50
2023/01/05 06:52:07;;;;;;;11.83;2.27;;;8.20;1.00;;;;;;4956803;29;20297;-51
2023/01/05 06:54:32;;;;;;;11.63;2.03;;;8.20;1.00;;;;;;4956485;29;20182;-54
2023/01/05 06:56:58;;;;;;;14.10;3.23;;;8.20;1.00;;;;;;4939652;29;20276;-51
2023/01/05 06:59:23;;;;;;;9.13;2.10;;;8.20;1.00;;;;;;4956661;29;20190;-50
2023/01/05 07:01:49;;;;;;;10.57;2.10;;;8.20;99.90;;;;;;4956893;29;20844;-48
2023/01/05 07:04:14;;;;;;;13.17;2.27;;;8.20;1.00;;;;;;4956568;29;20277;-48
2023/01/05 07:06:40;;;;;;;10.03;2.10;;;8.10;1.00;;;;;;4956547;28;20209;-48
2023/01/05 07:09:06;;;;;;;22.17;2.20;;;8.10;1.00;;;;;;4956362;29;20201;-48
2023/01/05 07:11:31;;;;;;;15.10;1.67;;;8.10;99.90;;;;;;4957658;29;20264;-48
2023/01/05 07:13:57;;;;;;;18.87;2.70;;;8.10;99.90;;;;;;4956229;28;20178;-48
2023/01/05 07:16:22;;;;;;;12.27;2.30;;;8.20;99.90;;;;;;4956358;29;20174;-47
2023/01/05 07:18:48;;;;;;;13.10;2.33;;;8.20;99.90;;;;;;4956360;29;20182;-48
2023/01/05 07:21:13;;;;;;;10.93;2.10;;;8.20;1.00;;;;;;4955908;29;20190;-48
2023/01/05 07:23:39;;;;;;;15.63;1.83;;;8.20;99.90;;;;;;4955860;29;20225;-48
2023/01/05 07:26:06;;;;;;;10.73;2.43;;;8.20;92.90;;;;;;4947880;28;20194;-48
2023/01/05 07:28:33;;;;;;;7.17;1.70;;;8.20;99.90;;;;;;4954730;29;20210;-48
2023/01/05 07:30:59;;;;;;;17.90;2.63;;;8.20;99.90;;;;;;4956096;29;20418;-48
2023/01/05 07:33:24;;;;;;;17.30;2.90;;;8.20;99.90;;;;;;4955891;29;20440;-48
2023/01/05 07:35:50;;;;;;;13.70;2.90;;;8.30;99.90;;;;;;4955818;29;20628;-48
2023/01/05 07:38:16;;;;;;;14.73;2.40;;;8.20;1.00;;;;;;4955789;29;20232;-50
2023/01/05 07:40:41;;;;;;;14.00;2.30;;;8.20;1.00;;;;;;4955675;29;20186;-50
2023/01/05 07:43:07;;;;;;;12.33;2.13;;;8.30;54.10;;;;;;4956166;29;20985;-51
2023/01/05 07:45:32;;;;;;;9.40;2.20;;;8.20;99.90;;;;;;4956075;29;20193;-50
2023/01/05 07:47:58;;;;;;;9.13;2.13;;;8.20;99.90;;;;;;4955992;29;20190;-50
2023/01/05 07:50:24;;;;;;;7.30;2.10;;;8.20;99.90;;;;;;4955980;29;20220;-51
2023/01/05 07:52:50;;;;;;;8.60;1.97;;;8.20;99.90;;;;;;4956286;29;20896;-51
2023/01/05 07:55:16;;;;;;;15.80;2.23;;;8.20;99.90;;;;;;4955951;29;20413;-50
2023/01/05 07:57:41;;;;;;;17.00;2.07;;;8.20;1.00;;;;;;4954816;28;20236;-51
2023/01/05 08:00:10;;;;;;;18.63;2.83;;;8.20;1.00;;;;;;4955877;28;20213;-51
2023/01/05 08:02:35;;;;;;;16.40;2.60;;;8.20;1.00;;;;;;4956177;28;20181;-51
2023/01/05 08:05:02;;;;;;;16.83;2.40;;;8.20;99.90;;;;;;4956200;29;20449;-50
2023/01/05 08:07:27;;;;;;;14.13;2.00;;;8.20;99.90;;;;;;4955911;29;20475;-52
2023/01/05 08:13:58;;;;;;;21.63;2.07;;;8.30;99.90;;;;;;4955884;28;20189;-51
2023/01/05 08:15:22;;;;;;;20.10;2.60;;;8.20;99.90;;;;;;4955912;29;20453;-54
2023/01/05 08:17:48;;;;;;;10.83;2.60;;;8.20;1.00;;;;;;4955698;28;20417;-51
2023/01/05 08:20:13;;;;;;;15.70;2.60;;;8.20;1.00;;;;;;4955488;29;20181;-52
2023/01/05 08:22:39;;;;;;;22.00;3.77;;;8.20;1.00;;;;;;4955702;29;20237;-51
2023/01/05 08:25:05;;;;;;;12.20;2.60;;;8.20;1.00;;;;;;4955250;29;20847;-50
2023/01/05 08:27:30;;;;;;;13.87;2.60;;;8.20;1.00;;;;;;4955768;29;20543;-51
2023/01/05 08:29:56;;;;;;;17.80;3.33;;;8.20;99.90;;;;;;4955202;29;20202;-51
2023/01/05 08:32:22;;;;;;;12.97;2.50;;;8.20;1.00;;;;;;4955216;29;20178;-51
2023/01/05 08:34:47;;;;;;;16.30;2.40;;;8.10;99.90;;;;;;4955045;28;20273;-51
2023/01/05 08:37:13;;;;;;;23.33;2.90;;;8.00;1.00;;;;;;4946123;29;20599;-52
2023/01/05 08:39:38;;;;;;;18.20;2.57;;;7.90;1.00;;;;;;4955060;29;20236;-51
2023/01/05 08:42:04;;;;;;;13.30;3.10;;;7.90;1.00;;;;;;4955123;29;20189;-52
2023/01/05 08:44:29;;;;;;;20.90;2.80;;;7.80;1.00;;;;;;4954806;28;20189;-50
2023/01/05 08:46:55;;;;;;;20.77;2.70;;;7.90;1.00;;;;;;4955156;28;20196;-51
2023/01/05 08:49:21;;;;;;;26.57;3.90;;;7.80;1.00;;;;;;4955064;29;20253;-51
2023/01/05 08:51:46;;;;;;;14.00;2.80;;;7.80;1.00;;;;;;4954757;28;20193;-51
2023/01/05 08:54:12;;;;;;;20.30;3.20;;;7.80;62.20;;;;;;4954943;29;20166;-51
2023/01/05 08:56:38;;;;;;;16.20;2.90;;;7.70;99.90;;;;;;4954843;28;20185;-51
2023/01/05 08:59:03;;;;;;;19.63;2.90;;;7.70;99.90;;;;;;4954613;29;20990;-51
2023/01/05 09:01:30;;;;;;;21.70;3.40;;;7.70;99.90;;;;;;4954860;28;20891;-51
2023/01/05 09:03:55;;;;;;;18.57;2.40;;;7.60;99.90;;;;;;4954667;29;20646;-52
2023/01/05 09:06:21;;;;;;;19.83;2.97;;;7.60;99.90;;;;;;4954361;28;20417;-51
2023/01/05 09:08:47;;;;;;;12.40;2.30;;;7.60;99.90;;;;;;4937009;29;20205;-51
2023/01/05 09:11:20;;;;;;;18.60;2.30;;;7.60;99.90;;;;;;4954430;29;20249;-52
2023/01/05 09:13:49;;;;;;;14.60;2.73;;;7.60;99.90;;;;;;4955241;29;20417;-51
2023/01/05 09:16:20;;;;;;;12.97;2.57;;;7.70;99.90;;;;;;4954245;29;20398;-52
2023/01/05 09:18:46;;;;;;;15.13;2.73;;;7.70;99.90;;;;;;4954157;28;20892;-51
2023/01/05 09:21:12;;;;;;;14.80;2.60;;;7.70;99.90;;;;;;4953789;29;20780;-51
2023/01/05 09:23:38;;;;;;;14.97;2.37;;;7.70;99.90;;;;;;4953916;29;20433;-51
2023/01/05 09:26:05;;;;;;;10.07;1.90;;;7.70;99.90;;;;;;4953898;29;20768;-52
2023/01/05 09:28:31;;;;;;;14.20;2.67;;;7.70;99.90;;;;;;4936539;29;20473;-55
2023/01/05 09:30:57;;;;;;;14.53;2.67;;;7.70;99.90;;;;;;4953872;29;20420;-52
2023/01/05 09:33:23;;;;;;;11.40;2.40;;;7.80;99.90;;;;;;4954112;29;20276;-51
2023/01/05 09:35:55;;;;;;;12.17;3.57;;;7.80;99.90;;;;;;4946025;29;20221;-52
2023/01/05 09:38:22;;;;;;;12.27;2.43;;;7.90;99.90;;;;;;4935785;29;20422;-51
2023/01/05 09:40:50;;;;;;;17.20;2.50;;;7.90;99.90;;;;;;4935884;29;21475;-52
2023/01/05 09:43:37;;;;;;;14.93;2.13;;;7.80;99.90;;;;;;4948447;29;20452;-51
2023/01/05 09:46:12;;;;;;;14.37;2.50;;;7.70;99.90;;;;;;4932767;29;20989;-52
2023/01/05 09:48:41;;;;;;;14.33;3.63;;;7.80;99.90;;;;;;4950880;29;20456;-51
2023/01/05 09:51:08;;;;;;;20.40;2.60;;;7.80;99.90;;;;;;4950617;28;20437;-51
2023/01/05 09:53:34;;;;;;;12.93;2.50;;;7.80;99.90;;;;;;4952606;29;20424;-51
2023/01/05 09:56:00;;;;;;;21.90;3.20;;;7.80;99.90;;;;;;4951436;29;20442;-52
2023/01/05 09:58:32;;;;;;;15.27;2.47;;;7.80;99.90;;;;;;4951353;29;20673;-51
2023/01/05 10:01:13;;;;;;;13.87;2.93;;;7.80;99.90;;;;;;4949730;28;20434;-51
2023/01/05 10:04:02;;;;;;;16.03;2.53;;;7.80;99.90;;;;;;4952571;29;20406;-51
2023/01/05 10:06:33;;;;;;;16.03;3.40;;;7.70;99.90;;;;;;4951288;28;20413;-51
2023/01/05 10:09:01;;;;;;;21.67;3.20;;;7.60;42.50;;;;;;4950725;29;21204;-52
2023/01/05 10:14:34;;;;;;;21.43;2.93;;;7.70;90.60;;;;;;4951304;29;20444;-52
2023/01/05 10:17:00;;;;;;;22.53;2.83;;;7.70;99.90;;;;;;4950911;29;20426;-51
2023/01/05 10:19:27;;;;;;;26.60;3.50;;;7.70;99.90;;;;;;4952247;28;20402;-51
2023/01/05 10:22:14;;;;;;;14.40;2.20;;;7.70;99.90;;;;;;4953574;29;20649;-53
2023/01/05 10:25:01;;;;;;;13.53;2.90;;;7.90;99.90;;;;;;4955573;29;20425;-51
2023/01/05 10:27:39;;;;;;;11.27;2.60;;;8.10;99.90;;;;;;4954957;29;20770;-53
2023/01/05 10:30:12;;;;;;;15.87;2.97;;;8.30;69.70;;;;;;4955030;29;20464;-51
2023/01/05 10:32:52;;;;;;;19.13;3.57;;;8.30;1.00;;;;;;4955506;29;20468;-51
2023/01/05 10:35:46;;;;;;;18.00;2.80;;;8.20;1.00;;;;;;4954165;29;20430;-51
2023/01/05 10:38:30;;;;;;;30.13;3.50;;;8.40;1.00;;;;;;4947757;28;20418;-51
2023/01/05 10:41:14;;;;;;;15.13;2.87;;;8.50;1.00;;;;;;4936274;29;20425;-51
2023/01/05 10:44:15;;;;;;;20.60;3.03;;;8.60;1.00;;;;;;4928774;29;20845;-51
2023/01/05 10:46:47;;;;;;;12.80;2.80;;;8.70;99.90;;;;;;4897622;29;20439;-51
2023/01/05 10:49:28;;;;;;;12.07;2.47;;;9.00;99.90;;;;;;4933461;29;20800;-51
2023/01/05 10:51:56;;;;;;;15.07;2.53;;;9.40;1.00;;;;;;4957074;28;20427;-51
2023/01/05 10:54:44;;;;;;;18.30;3.00;;;9.70;75.50;;;;;;4956874;29;20421;-51
2023/01/05 10:57:31;;;;;;;20.77;2.87;;;9.80;99.90;;;;;;4957213;28;20431;-51
2023/01/05 11:00:14;;;;;;;11.10;2.17;;;10.20;1.00;;;;;;4957080;29;21079;-51
2023/01/05 11:02:59;;;;;;;16.77;2.37;;;10.90;99.90;;;;;;4957074;29;20421;-51
2023/01/05 11:05:34;;;;;;;15.87;2.40;;;10.70;99.90;;;;;;4956952;29;20472;-51
2023/01/05 11:08:03;;;;;;;17.40;2.53;;;9.90;1.00;;;;;;4956626;29;20636;-51
2023/01/05 11:10:46;;;;;;;13.67;2.50;;;9.40;1.00;;;;;;4957261;29;20456;-52
2023/01/05 11:13:15;;;;;;;12.07;2.80;;;9.10;99.90;;;;;;4956742;29;20416;-51
2023/01/05 11:15:46;;;;;;;16.30;2.70;;;9.00;99.90;;;;;;4956625;28;20570;-51
2023/01/05 11:18:29;;;;;;;20.27;3.57;;;8.90;99.90;;;;;;4956698;29;20445;-51
2023/01/05 11:21:09;;;;;;;18.50;2.80;;;8.70;1.00;;;;;;4956572;29;20429;-51
2023/01/05 11:23:38;;;;;;;16.77;3.00;;;8.60;1.00;;;;;;4956388;28;20420;-51
2023/01/05 11:26:25;;;;;;;15.90;3.00;;;8.50;1.00;;;;;;4956973;29;20408;-51
2023/01/05 11:29:10;;;;;;;22.77;3.27;;;8.50;1.00;;;;;;4956529;28;20475;-51
2023/01/05 11:31:57;;;;;;;27.17;3.87;;;8.40;1.00;;;;;;4956369;28;20484;-52
2023/01/05 11:34:44;;;;;;;12.33;2.97;;;8.30;1.00;;;;;;4939149;28;20456;-51
2023/01/05 11:37:27;;;;;;;22.20;5.17;;;8.20;99.90;;;;;;4956365;29;20496;-50
2023/01/05 11:39:53;;;;;;;12.07;2.30;;;8.30;99.90;;;;;;4956304;29;20413;-48
2023/01/05 11:42:24;;;;;;;14.00;2.70;;;8.40;99.90;;;;;;4956234;29;20413;-48
2023/01/05 11:44:57;;;;;;;11.67;3.17;;;8.70;92.00;;;;;;4956239;28;20551;-48
2023/01/05 11:47:36;;;;;;;16.77;2.50;;;9.40;1.00;;;;;;4954889;28;20799;-48
2023/01/05 11:50:23;;;;;;;18.33;2.47;;;9.90;99.90;;;;;;4956148;29;20492;-48
2023/01/05 11:53:01;;;;;;;12.57;3.03;;;9.80;99.90;;;;;;4955799;29;20915;-48
2023/01/05 11:55:39;;;;;;;17.50;2.07;;;9.80;99.90;;;;;;4956265;29;20468;-48
2023/01/05 11:58:16;;;;;;;10.10;2.70;;;10.00;99.90;;;;;;4956554;29;20433;-48
2023/01/05 12:01:10;;;;;;;12.63;3.03;;;10.50;62.90;;;;;;4956132;29;20476;-48
2023/01/05 12:03:50;;;;;;;11.17;2.13;;;10.60;4.80;;;;;;4956324;29;20478;-48
2023/01/05 12:06:30;;;;;;;16.07;2.57;;;10.30;1.00;;;;;;4955858;29;20421;-48
2023/01/05 12:09:22;;;;;;;14.17;2.07;;;10.40;1.00;;;;;;4955721;29;20444;-48
2023/01/05 12:11:59;;;;;;;16.70;2.63;;;10.30;1.00;;;;;;4955548;29;20426;-48
2023/01/05 12:14:33;;;;;;;21.73;2.70;;;10.00;4.60;;;;;;4955100;29;20405;-48
2023/01/05 12:17:24;;;;;;;11.63;2.00;;;9.60;27.10;;;;;;4955517;29;20512;-49
2023/01/05 12:20:00;;;;;;;10.57;2.30;;;9.30;70.20;;;;;;4955324;28;20516;-50
2023/01/05 12:22:48;;;;;;;13.93;2.00;;;9.20;99.90;;;;;;4955291;29;20475;-48
2023/01/05 12:25:28;;;;;;;11.27;2.53;;;9.10;99.90;;;;;;4947188;28;21261;-48
2023/01/05 12:28:21;;;;;;;19.93;3.70;;;9.00;99.90;;;;;;4920555;29;20444;-48
2023/01/05 12:31:16;;;;;;;18.27;2.20;;;8.90;99.90;;;;;;4936262;29;20414;-48
2023/01/05 12:34:05;;;;;;;14.67;2.17;;;8.80;99.90;;;;;;4936179;29;20407;-48
2023/01/05 12:36:49;;;;;;;19.73;2.50;;;8.70;99.90;;;;;;4935891;29;20454;-49
2023/01/05 12:39:42;;;;;;;8.17;1.90;;;8.70;99.90;;;;;;4935994;29;20872;-48
2023/01/05 12:42:20;;;;;;;17.13;2.23;;;8.70;99.90;;;;;;4935707;28;20410;-52
2023/01/05 12:44:57;;;;;;;14.03;2.43;;;8.70;99.90;;;;;;4935251;29;20409;-51
2023/01/05 12:47:33;;;;;;;9.60;2.20;;;8.60;1.00;;;;;;4935760;29;20425;-51
2023/01/05 12:50:19;;;;;;;14.83;2.60;;;8.60;1.00;;;;;;4935325;29;20800;-51
2023/01/05 12:52:50;;;;;;;15.07;2.87;;;8.70;1.00;;;;;;4935605;29;20453;-51
2023/01/05 12:55:27;;;;;;;14.03;2.47;;;8.80;1.00;;;;;;4935672;29;20406;-51
2023/01/05 12:57:59;;;;;;;7.87;2.13;;;8.80;1.00;;;;;;4935586;29;20502;-59
2023/01/05 13:00:30;;;;;;;18.67;2.60;;;8.80;1.00;;;;;;4935227;29;20422;-51
2023/01/05 13:03:10;;;;;;;14.67;2.17;;;9.00;99.90;;;;;;4935390;29;20414;-51
2023/01/05 13:06:08;;;;;;;12.93;2.37;;;9.10;99.90;;;;;;4935452;29;20413;-51
2023/01/05 13:08:52;;;;;;;7.20;1.73;;;9.00;99.90;;;;;;4933997;29;20959;-51
2023/01/05 13:11:28;;;;;;;6.87;1.70;;;8.90;99.90;;;;;;4935843;29;20432;-50
2023/01/05 13:13:58;;;;;;;9.17;2.17;;;8.80;99.90;;;;;;4935245;29;20465;-50
2023/01/05 13:16:42;;;;;;;9.57;2.13;;;8.70;99.90;;;;;;4934925;29;20493;-51
2023/01/05 13:19:27;;;;;;;6.80;2.10;;;8.50;99.90;;;;;;4935448;29;20406;-51
2023/01/05 13:21:53;;;;;;;10.40;1.60;;;8.50;99.90;;;;;;4934998;29;20478;-51
2023/01/05 13:24:49;;;;;;;4.03;1.20;;;8.50;99.90;;;;;;4935044;29;20477;-51
2023/01/05 13:27:16;;;;;;;8.23;1.50;;;8.60;99.90;;;;;;4934737;29;20429;-50
2023/01/05 13:29:46;;;;;;;8.13;1.50;;;8.60;99.90;;;;;;4934861;29;20457;-52
2023/01/05 13:32:43;;;;;;;3.87;1.20;;;8.60;99.90;;;;;;4934940;29;20885;-51
2023/01/05 13:35:47;;;;;;;4.67;1.70;;;9.10;99.90;;;;;;4934610;29;20415;-50
2023/01/05 13:38:51;;;;;;;6.50;1.47;;;10.40;37.40;;;;;;4914230;29;20426;-51
2023/01/05 13:41:24;;;;;;;7.40;1.50;;;10.80;1.00;;;;;;4919791;29;20422;-51
2023/01/05 13:43:55;;;;;;;3.87;1.23;;;10.60;1.00;;;;;;4935209;29;20437;-50
2023/01/05 13:46:25;;;;;;;11.33;1.57;;;10.10;1.00;;;;;;4934728;29;20407;-51
2023/01/05 13:48:53;;;;;;;5.40;1.70;;;9.60;1.00;;;;;;4934656;29;20468;-51